Newtownabbey, United Kingdom
Current Conditions -  °F | °C
As of 9:20 PM on Tuesday 27 Jan 2015 (Local Time) from EGAC Reporting Station
Drizzle Drizzle  
Wind Chill: 37°   Ceiling: 1400
Heat Index: 45°   Visibility: 6mi
Dew Point: 43°   Wind: 20mph
Humidity: 93%   Direction: 210°SSW
Pressure: 29.88"   Gusts: NA
Location:  54.68°N, 5.97°W
Report Text: EGAC 272120Z 21017KT 9999 4000NW -DZ SCT010 BKN014 07/06 Q1012
Loading
Personal Weather Stations






























Interactive Weather Map New forecast layout! Learn more

10-Day Weather Forecast

Advertisements
Track Severe Weather on mobile